createdAt,value
2023-01-17T12:54:25.482Z,978.60
2023-01-17T12:55:25.459Z,978.58
2023-01-17T12:56:25.424Z,978.62
2023-01-17T12:57:25.405Z,978.62
2023-01-17T12:58:25.383Z,978.55
2023-01-17T12:59:25.370Z,978.56
2023-01-17T13:00:25.377Z,978.52
2023-01-17T13:01:25.393Z,978.54
2023-01-17T13:02:25.285Z,978.51
2023-01-17T13:03:25.280Z,978.54
2023-01-17T13:04:25.223Z,978.50
2023-01-17T13:05:25.207Z,978.51
2023-01-17T13:06:25.177Z,978.47
2023-01-17T13:07:25.179Z,978.51
2023-01-17T13:08:25.143Z,978.53
2023-01-17T13:09:25.135Z,978.52
2023-01-17T13:10:25.110Z,978.49
2023-01-17T13:11:25.070Z,978.45
2023-01-17T13:12:25.057Z,978.47
2023-01-17T13:13:25.042Z,978.48
2023-01-17T13:14:25.022Z,978.52
2023-01-17T13:15:25.005Z,978.49
2023-01-17T13:16:24.977Z,978.49
2023-01-17T13:17:24.963Z,978.52
2023-01-17T13:18:24.937Z,978.58
2023-01-17T13:19:24.909Z,978.56
2023-01-17T13:21:39.015Z,978.61
2023-01-17T13:22:38.969Z,978.65
2023-01-17T13:23:38.946Z,978.67
2023-01-17T13:24:38.921Z,978.73
2023-01-17T13:25:38.899Z,978.74
2023-01-17T13:26:38.898Z,978.76
2023-01-17T13:27:38.859Z,978.70
2023-01-17T13:28:38.844Z,978.74
2023-01-17T13:29:38.805Z,978.75
2023-01-17T13:30:38.789Z,978.78
2023-01-17T13:31:38.816Z,978.73
2023-01-17T13:32:38.751Z,978.69
2023-01-17T13:33:38.765Z,978.70
2023-01-17T13:34:38.708Z,978.68
2023-01-17T13:35:38.686Z,978.64
2023-01-17T13:36:38.662Z,978.60
2023-01-17T13:37:38.657Z,978.61
2023-01-17T13:38:38.635Z,978.57
2023-01-17T13:39:38.594Z,978.51
